Главная страница
METAR-TAF:

METAR-TAF

Аэропорты :

Нефтяная платформа

Norne Fpso, Норвегия

широта: 66-01-48N, долгота: 008-04-48E, высота над уровнем моря: 10 м

Текущие метеонаблюдения

Эта сводка был подготовлена 48 минут назад, в 15:20 UTC
Ветер 12 Узел от восточный
Температура 12°C
Влажность 94%
Давление 1008 hPa
Видимость 10 км и более
Нет облачности ниже 1500 м, и нет кучево-дождевой облачности

METAR: ENNE 221520Z 10012KT CAVOK 12/11 Q1008 W///S3

Время: 18:08 (16:08 UTC)

Прогноз

Эта сводка был подготовлена 8 часа и 8 минут назад, в 08:00 UTC
Прогноз действительный с 22-го 09 UTC до 22-го 17 UTC
Ветер 15 Узел от восточно-юго-восточный
Видимость 10 км и более
Нет облачности ниже 1500 м, и нет кучево-дождевой облачности

TAF: ENNE 220800Z 2209/2217 12015KT CAVOK

Метеонаблюдения и прогнозы для более 4000 аэропортов (сводки METAR и TAF).

Имеющиеся станции представлены на карте желтыми и красными точками.

Чтобы увидеть название станции, наведите на нее мышь.

Затем щелкните, чтобы увидеть метеонаблюдения и метеопрогнозы.

Управление картой: чтобы увеличить масштаб, щелкните зеленые кнопки с черным крестиком; чтобы уменьшить масштаб, щелкните зеленую кнопку с тире; для просмотра соседних карт щелкайте зеленые стрелки.


METAR-TAF: